sensor_id;sensor_type;location;lat;lon;timestamp;P1;durP1;ratioP1;P2;durP2;ratioP2
61473;SDS011;53694;49.784;30.150;2023-06-05T00:00:31;7.76;;;2.49;;
61473;SDS011;53694;49.784;30.150;2023-06-05T00:01:33;8.64;;;2.55;;
61473;SDS011;53694;49.784;30.150;2023-06-05T00:02:35;6.36;;;2.21;;
61473;SDS011;53694;49.784;30.150;2023-06-05T00:03:36;4.81;;;2.06;;
61473;SDS011;53694;49.784;30.150;2023-06-05T00:04:38;5.04;;;1.95;;
61473;SDS011;53694;49.784;30.150;2023-06-05T00:05:39;6.36;;;2.02;;
61473;SDS011;53694;49.784;30.150;2023-06-05T00:06:41;5.12;;;2.40;;
61473;SDS011;53694;49.784;30.150;2023-06-05T00:07:42;7.91;;;2.35;;
61473;SDS011;53694;49.784;30.150;2023-06-05T00:08:44;5.98;;;2.15;;
61473;SDS011;53694;49.784;30.150;2023-06-05T00:09:45;8.25;;;2.34;;
61473;SDS011;53694;49.784;30.150;2023-06-05T00:10:47;5.47;;;1.94;;
61473;SDS011;53694;49.784;30.150;2023-06-05T00:11:49;5.56;;;2.11;;
61473;SDS011;53694;49.784;30.150;2023-06-05T00:12:50;4.75;;;1.73;;
61473;SDS011;53694;49.784;30.150;2023-06-05T00:13:52;4.16;;;1.66;;
61473;SDS011;53694;49.784;30.150;2023-06-05T00:14:53;4.99;;;2.06;;
61473;SDS011;53694;49.784;30.150;2023-06-05T00:15:55;4.95;;;1.91;;
61473;SDS011;53694;49.784;30.150;2023-06-05T00:16:57;6.40;;;2.14;;
61473;SDS011;53694;49.784;30.150;2023-06-05T00:17:58;5.69;;;2.11;;
61473;SDS011;53694;49.784;30.150;2023-06-05T00:18:59;6.91;;;2.23;;
61473;SDS011;53694;49.784;30.150;2023-06-05T00:20:01;6.23;;;2.31;;
61473;SDS011;53694;49.784;30.150;2023-06-05T00:21:03;4.03;;;1.68;;
61473;SDS011;53694;49.784;30.150;2023-06-05T00:22:05;6.19;;;2.08;;
61473;SDS011;53694;49.784;30.150;2023-06-05T00:23:08;5.04;;;2.07;;
61473;SDS011;53694;49.784;30.150;2023-06-05T00:24:10;5.03;;;1.99;;
61473;SDS011;53694;49.784;30.150;2023-06-05T00:25:12;7.66;;;2.10;;
61473;SDS011;53694;49.784;30.150;2023-06-05T00:26:14;4.55;;;1.93;;
61473;SDS011;53694;49.784;30.150;2023-06-05T00:27:15;5.41;;;1.95;;
61473;SDS011;53694;49.784;30.150;2023-06-05T00:28:17;4.32;;;1.69;;
61473;SDS011;53694;49.784;30.150;2023-06-05T00:29:18;5.14;;;2.08;;
61473;SDS011;53694;49.784;30.150;2023-06-05T00:30:20;5.05;;;1.88;;
61473;SDS011;53694;49.784;30.150;2023-06-05T00:31:22;6.50;;;1.62;;
61473;SDS011;53694;49.784;30.150;2023-06-05T00:32:24;5.41;;;2.11;;
61473;SDS011;53694;49.784;30.150;2023-06-05T00:33:25;5.56;;;1.73;;
61473;SDS011;53694;49.784;30.150;2023-06-05T00:34:27;4.86;;;2.13;;
61473;SDS011;53694;49.784;30.150;2023-06-05T00:35:28;5.46;;;2.02;;
61473;SDS011;53694;49.784;30.150;2023-06-05T00:36:30;6.35;;;2.06;;
61473;SDS011;53694;49.784;30.150;2023-06-05T00:37:31;4.50;;;1.50;;
61473;SDS011;53694;49.784;30.150;2023-06-05T00:38:33;5.22;;;1.86;;
61473;SDS011;53694;49.784;30.150;2023-06-05T00:39:34;3.95;;;1.70;;
61473;SDS011;53694;49.784;30.150;2023-06-05T00:40:36;4.23;;;1.62;;
61473;SDS011;53694;49.784;30.150;2023-06-05T00:41:37;4.19;;;1.67;;
61473;SDS011;53694;49.784;30.150;2023-06-05T00:42:39;3.57;;;1.74;;
61473;SDS011;53694;49.784;30.150;2023-06-05T00:43:40;6.71;;;1.62;;
61473;SDS011;53694;49.784;30.150;2023-06-05T00:44:42;5.18;;;2.00;;
61473;SDS011;53694;49.784;30.150;2023-06-05T00:45:44;4.92;;;1.89;;
61473;SDS011;53694;49.784;30.150;2023-06-05T00:46:47;4.14;;;1.60;;
61473;SDS011;53694;49.784;30.150;2023-06-05T00:47:50;5.74;;;2.00;;
61473;SDS011;53694;49.784;30.150;2023-06-05T00:48:51;4.55;;;2.00;;
61473;SDS011;53694;49.784;30.150;2023-06-05T00:49:53;5.21;;;1.82;;
61473;SDS011;53694;49.784;30.150;2023-06-05T00:50:55;7.77;;;1.87;;
61473;SDS011;53694;49.784;30.150;2023-06-05T00:51:58;4.61;;;1.48;;
61473;SDS011;53694;49.784;30.150;2023-06-05T00:53:01;3.69;;;1.69;;
61473;SDS011;53694;49.784;30.150;2023-06-05T00:54:03;3.95;;;1.66;;
61473;SDS011;53694;49.784;30.150;2023-06-05T00:55:06;3.93;;;1.59;;
61473;SDS011;53694;49.784;30.150;2023-06-05T00:56:08;4.91;;;1.60;;
61473;SDS011;53694;49.784;30.150;2023-06-05T00:57:10;5.01;;;1.96;;
61473;SDS011;53694;49.784;30.150;2023-06-05T00:58:12;6.43;;;1.80;;
61473;SDS011;53694;49.784;30.150;2023-06-05T00:59:15;4.58;;;1.96;;
61473;SDS011;53694;49.784;30.150;2023-06-05T01:00:18;5.87;;;2.16;;
61473;SDS011;53694;49.784;30.150;2023-06-05T01:01:20;3.47;;;1.41;;
61473;SDS011;53694;49.784;30.150;2023-06-05T01:02:22;5.39;;;2.25;;
61473;SDS011;53694;49.784;30.150;2023-06-05T01:03:24;7.07;;;2.06;;
61473;SDS011;53694;49.784;30.150;2023-06-05T01:04:26;5.49;;;1.49;;
61473;SDS011;53694;49.784;30.150;2023-06-05T01:05:28;3.75;;;1.38;;
61473;SDS011;53694;49.784;30.150;2023-06-05T01:06:30;5.84;;;2.62;;
61473;SDS011;53694;49.784;30.150;2023-06-05T01:07:32;5.31;;;1.79;;
61473;SDS011;53694;49.784;30.150;2023-06-05T01:08:35;3.55;;;1.25;;
61473;SDS011;53694;49.784;30.150;2023-06-05T01:09:37;4.22;;;1.42;;
61473;SDS011;53694;49.784;30.150;2023-06-05T01:10:39;3.06;;;1.20;;
61473;SDS011;53694;49.784;30.150;2023-06-05T01:11:52;4.19;;;1.53;;
61473;SDS011;53694;49.784;30.150;2023-06-05T01:14:22;4.52;;;1.63;;
61473;SDS011;53694;49.784;30.150;2023-06-05T01:15:27;5.98;;;1.73;;
61473;SDS011;53694;49.784;30.150;2023-06-05T01:16:30;4.15;;;1.53;;
61473;SDS011;53694;49.784;30.150;2023-06-05T01:17:32;4.31;;;1.65;;
61473;SDS011;53694;49.784;30.150;2023-06-05T01:18:34;3.92;;;1.29;;
61473;SDS011;53694;49.784;30.150;2023-06-05T01:19:35;2.67;;;1.29;;
61473;SDS011;53694;49.784;30.150;2023-06-05T01:20:38;4.82;;;1.79;;
61473;SDS011;53694;49.784;30.150;2023-06-05T01:21:41;3.54;;;1.49;;
61473;SDS011;53694;49.784;30.150;2023-06-05T01:22:46;4.13;;;1.68;;
61473;SDS011;53694;49.784;30.150;2023-06-05T01:23:47;3.82;;;1.40;;
61473;SDS011;53694;49.784;30.150;2023-06-05T01:24:49;5.50;;;1.72;;
61473;SDS011;53694;49.784;30.150;2023-06-05T01:25:50;7.41;;;2.03;;
61473;SDS011;53694;49.784;30.150;2023-06-05T01:26:56;3.77;;;1.57;;
61473;SDS011;53694;49.784;30.150;2023-06-05T01:28:00;8.94;;;1.86;;
61473;SDS011;53694;49.784;30.150;2023-06-05T01:29:03;4.78;;;1.97;;
61473;SDS011;53694;49.784;30.150;2023-06-05T01:30:10;5.02;;;1.57;;
61473;SDS011;53694;49.784;30.150;2023-06-05T01:31:22;4.07;;;1.57;;
61473;SDS011;53694;49.784;30.150;2023-06-05T01:32:40;5.52;;;1.68;;
61473;SDS011;53694;49.784;30.150;2023-06-05T01:33:35;4.18;;;1.78;;
61473;SDS011;53694;49.784;30.150;2023-06-05T01:34:38;3.36;;;1.34;;
61473;SDS011;53694;49.784;30.150;2023-06-05T01:35:41;3.08;;;1.44;;
61473;SDS011;53694;49.784;30.150;2023-06-05T01:36:43;3.43;;;1.56;;
61473;SDS011;53694;49.784;30.150;2023-06-05T01:37:46;5.31;;;1.89;;
61473;SDS011;53694;49.784;30.150;2023-06-05T01:38:49;4.95;;;1.83;;
61473;SDS011;53694;49.784;30.150;2023-06-05T01:39:54;6.16;;;2.12;;
61473;SDS011;53694;49.784;30.150;2023-06-05T01:40:57;7.37;;;2.09;;
61473;SDS011;53694;49.784;30.150;2023-06-05T01:41:59;7.31;;;2.20;;
61473;SDS011;53694;49.784;30.150;2023-06-05T01:43:01;6.28;;;1.99;;
61473;SDS011;53694;49.784;30.150;2023-06-05T01:44:04;8.64;;;2.16;;
61473;SDS011;53694;49.784;30.150;2023-06-05T01:45:08;6.76;;;2.32;;
61473;SDS011;53694;49.784;30.150;2023-06-05T01:46:11;7.44;;;2.70;;
61473;SDS011;53694;49.784;30.150;2023-06-05T01:47:13;5.22;;;2.35;;
61473;SDS011;53694;49.784;30.150;2023-06-05T01:48:15;6.47;;;1.91;;
61473;SDS011;53694;49.784;30.150;2023-06-05T01:49:17;5.47;;;1.80;;
61473;SDS011;53694;49.784;30.150;2023-06-05T01:50:20;6.12;;;2.06;;
61473;SDS011;53694;49.784;30.150;2023-06-05T01:51:22;6.10;;;2.13;;
61473;SDS011;53694;49.784;30.150;2023-06-05T01:52:24;6.64;;;2.10;;
61473;SDS011;53694;49.784;30.150;2023-06-05T01:53:25;4.44;;;1.85;;
61473;SDS011;53694;49.784;30.150;2023-06-05T01:54:28;7.95;;;2.03;;
61473;SDS011;53694;49.784;30.150;2023-06-05T01:55:30;5.29;;;1.79;;
61473;SDS011;53694;49.784;30.150;2023-06-05T01:56:32;3.87;;;1.85;;
61473;SDS011;53694;49.784;30.150;2023-06-05T01:57:33;5.75;;;1.77;;
61473;SDS011;53694;49.784;30.150;2023-06-05T01:58:35;5.38;;;1.84;;
61473;SDS011;53694;49.784;30.150;2023-06-05T01:59:36;5.45;;;1.86;;
61473;SDS011;53694;49.784;30.150;2023-06-05T02:00:38;4.28;;;1.81;;
61473;SDS011;53694;49.784;30.150;2023-06-05T02:01:39;5.17;;;2.41;;
61473;SDS011;53694;49.784;30.150;2023-06-05T02:02:46;7.63;;;2.01;;
61473;SDS011;53694;49.784;30.150;2023-06-05T02:03:45;7.85;;;2.33;;
61473;SDS011;53694;49.784;30.150;2023-06-05T02:04:46;11.14;;;2.26;;
61473;SDS011;53694;49.784;30.150;2023-06-05T02:05:51;4.59;;;1.73;;
61473;SDS011;53694;49.784;30.150;2023-06-05T02:06:53;5.06;;;1.96;;
61473;SDS011;53694;49.784;30.150;2023-06-05T02:07:54;6.62;;;2.15;;
61473;SDS011;53694;49.784;30.150;2023-06-05T02:08:56;4.19;;;1.79;;
61473;SDS011;53694;49.784;30.150;2023-06-05T02:09:57;3.69;;;1.71;;
61473;SDS011;53694;49.784;30.150;2023-06-05T02:10:59;5.19;;;1.84;;
61473;SDS011;53694;49.784;30.150;2023-06-05T02:12:00;6.18;;;1.86;;
61473;SDS011;53694;49.784;30.150;2023-06-05T02:13:02;5.39;;;1.84;;
61473;SDS011;53694;49.784;30.150;2023-06-05T02:14:05;5.03;;;1.73;;
61473;SDS011;53694;49.784;30.150;2023-06-05T02:15:07;10.53;;;2.11;;
61473;SDS011;53694;49.784;30.150;2023-06-05T02:16:11;4.49;;;1.68;;
61473;SDS011;53694;49.784;30.150;2023-06-05T02:17:12;5.44;;;2.10;;
61473;SDS011;53694;49.784;30.150;2023-06-05T02:18:14;5.83;;;2.01;;
61473;SDS011;53694;49.784;30.150;2023-06-05T02:19:15;6.55;;;1.74;;
61473;SDS011;53694;49.784;30.150;2023-06-05T02:20:17;5.55;;;1.97;;
61473;SDS011;53694;49.784;30.150;2023-06-05T02:21:21;7.96;;;1.96;;
61473;SDS011;53694;49.784;30.150;2023-06-05T02:22:22;6.53;;;2.31;;
61473;SDS011;53694;49.784;30.150;2023-06-05T02:23:24;7.94;;;2.21;;
61473;SDS011;53694;49.784;30.150;2023-06-05T02:24:25;4.03;;;1.60;;
61473;SDS011;53694;49.784;30.150;2023-06-05T02:25:27;4.67;;;1.68;;
61473;SDS011;53694;49.784;30.150;2023-06-05T02:26:29;6.16;;;2.21;;
61473;SDS011;53694;49.784;30.150;2023-06-05T02:27:30;5.04;;;1.91;;
61473;SDS011;53694;49.784;30.150;2023-06-05T02:28:32;4.46;;;1.91;;
61473;SDS011;53694;49.784;30.150;2023-06-05T02:29:33;6.46;;;2.30;;
61473;SDS011;53694;49.784;30.150;2023-06-05T02:30:35;5.25;;;2.04;;
61473;SDS011;53694;49.784;30.150;2023-06-05T02:31:36;5.47;;;1.74;;
61473;SDS011;53694;49.784;30.150;2023-06-05T02:32:38;4.92;;;1.86;;
61473;SDS011;53694;49.784;30.150;2023-06-05T02:33:39;4.67;;;1.86;;
61473;SDS011;53694;49.784;30.150;2023-06-05T02:34:41;5.69;;;1.65;;
61473;SDS011;53694;49.784;30.150;2023-06-05T02:35:42;5.69;;;2.05;;
61473;SDS011;53694;49.784;30.150;2023-06-05T02:36:44;9.64;;;2.46;;
61473;SDS011;53694;49.784;30.150;2023-06-05T02:37:45;6.24;;;2.06;;
61473;SDS011;53694;49.784;30.150;2023-06-05T02:38:47;5.56;;;1.80;;
61473;SDS011;53694;49.784;30.150;2023-06-05T02:39:49;4.77;;;1.77;;
61473;SDS011;53694;49.784;30.150;2023-06-05T02:40:51;3.61;;;1.34;;
61473;SDS011;53694;49.784;30.150;2023-06-05T02:41:53;4.93;;;1.53;;
61473;SDS011;53694;49.784;30.150;2023-06-05T02:42:55;5.16;;;1.61;;
61473;SDS011;53694;49.784;30.150;2023-06-05T02:43:56;6.97;;;1.92;;
61473;SDS011;53694;49.784;30.150;2023-06-05T02:44:58;5.41;;;1.49;;
61473;SDS011;53694;49.784;30.150;2023-06-05T02:45:59;6.32;;;2.59;;
61473;SDS011;53694;49.784;30.150;2023-06-05T02:47:01;5.74;;;1.87;;
61473;SDS011;53694;49.784;30.150;2023-06-05T02:48:02;6.49;;;1.74;;
61473;SDS011;53694;49.784;30.150;2023-06-05T02:49:04;4.84;;;2.07;;
61473;SDS011;53694;49.784;30.150;2023-06-05T02:50:06;6.79;;;2.06;;
61473;SDS011;53694;49.784;30.150;2023-06-05T02:51:08;7.50;;;2.07;;
61473;SDS011;53694;49.784;30.150;2023-06-05T02:52:10;7.91;;;1.98;;
61473;SDS011;53694;49.784;30.150;2023-06-05T02:53:11;4.44;;;1.90;;
61473;SDS011;53694;49.784;30.150;2023-06-05T02:54:13;6.10;;;2.13;;
61473;SDS011;53694;49.784;30.150;2023-06-05T02:55:14;4.55;;;1.89;;
61473;SDS011;53694;49.784;30.150;2023-06-05T02:56:16;7.63;;;2.53;;
61473;SDS011;53694;49.784;30.150;2023-06-05T02:57:18;4.94;;;1.98;;
61473;SDS011;53694;49.784;30.150;2023-06-05T02:58:19;6.86;;;2.46;;
61473;SDS011;53694;49.784;30.150;2023-06-05T02:59:21;7.24;;;2.46;;
61473;SDS011;53694;49.784;30.150;2023-06-05T03:00:23;8.71;;;2.51;;
61473;SDS011;53694;49.784;30.150;2023-06-05T03:01:25;7.45;;;2.28;;
61473;SDS011;53694;49.784;30.150;2023-06-05T03:02:26;6.96;;;2.26;;
61473;SDS011;53694;49.784;30.150;2023-06-05T03:03:31;11.74;;;4.05;;
61473;SDS011;53694;49.784;30.150;2023-06-05T03:04:33;6.39;;;1.89;;
61473;SDS011;53694;49.784;30.150;2023-06-05T03:05:34;8.28;;;1.79;;
61473;SDS011;53694;49.784;30.150;2023-06-05T03:06:36;4.46;;;1.64;;
61473;SDS011;53694;49.784;30.150;2023-06-05T03:07:38;5.71;;;1.96;;
61473;SDS011;53694;49.784;30.150;2023-06-05T03:08:39;4.00;;;1.76;;
61473;SDS011;53694;49.784;30.150;2023-06-05T03:09:40;4.24;;;1.71;;
61473;SDS011;53694;49.784;30.150;2023-06-05T03:10:42;6.97;;;1.94;;
61473;SDS011;53694;49.784;30.150;2023-06-05T03:11:44;6.52;;;1.85;;
61473;SDS011;53694;49.784;30.150;2023-06-05T03:12:45;6.01;;;1.61;;
61473;SDS011;53694;49.784;30.150;2023-06-05T03:13:46;6.43;;;2.03;;
61473;SDS011;53694;49.784;30.150;2023-06-05T03:14:48;7.18;;;1.99;;
61473;SDS011;53694;49.784;30.150;2023-06-05T03:15:49;6.08;;;1.89;;
61473;SDS011;53694;49.784;30.150;2023-06-05T03:16:51;4.73;;;1.86;;
61473;SDS011;53694;49.784;30.150;2023-06-05T03:17:53;6.12;;;2.02;;
61473;SDS011;53694;49.784;30.150;2023-06-05T03:18:54;8.04;;;2.32;;
61473;SDS011;53694;49.784;30.150;2023-06-05T03:19:55;6.06;;;2.05;;
61473;SDS011;53694;49.784;30.150;2023-06-05T03:20:57;6.73;;;2.01;;
61473;SDS011;53694;49.784;30.150;2023-06-05T03:21:59;7.11;;;2.13;;
61473;SDS011;53694;49.784;30.150;2023-06-05T03:23:00;5.95;;;2.05;;
61473;SDS011;53694;49.784;30.150;2023-06-05T03:24:02;4.81;;;1.66;;
61473;SDS011;53694;49.784;30.150;2023-06-05T03:25:05;4.61;;;1.97;;
61473;SDS011;53694;49.784;30.150;2023-06-05T03:26:07;6.19;;;2.09;;
61473;SDS011;53694;49.784;30.150;2023-06-05T03:27:09;8.00;;;2.11;;
61473;SDS011;53694;49.784;30.150;2023-06-05T03:28:10;5.84;;;1.65;;
61473;SDS011;53694;49.784;30.150;2023-06-05T03:29:12;3.83;;;1.57;;
61473;SDS011;53694;49.784;30.150;2023-06-05T03:30:14;7.27;;;2.40;;
61473;SDS011;53694;49.784;30.150;2023-06-05T03:31:15;5.05;;;1.56;;
61473;SDS011;53694;49.784;30.150;2023-06-05T03:32:17;8.61;;;2.04;;
61473;SDS011;53694;49.784;30.150;2023-06-05T03:33:18;6.08;;;1.88;;
61473;SDS011;53694;49.784;30.150;2023-06-05T03:34:20;6.70;;;2.17;;
61473;SDS011;53694;49.784;30.150;2023-06-05T03:35:21;5.69;;;2.16;;
61473;SDS011;53694;49.784;30.150;2023-06-05T03:36:23;3.38;;;1.37;;
61473;SDS011;53694;49.784;30.150;2023-06-05T03:37:25;7.21;;;2.29;;
61473;SDS011;53694;49.784;30.150;2023-06-05T03:38:26;5.38;;;1.23;;
61473;SDS011;53694;49.784;30.150;2023-06-05T03:39:28;2.47;;;1.20;;
61473;SDS011;53694;49.784;30.150;2023-06-05T03:40:30;7.48;;;1.67;;
61473;SDS011;53694;49.784;30.150;2023-06-05T03:41:31;4.26;;;1.72;;
61473;SDS011;53694;49.784;30.150;2023-06-05T03:42:33;4.44;;;1.51;;
61473;SDS011;53694;49.784;30.150;2023-06-05T03:43:34;5.43;;;1.75;;
61473;SDS011;53694;49.784;30.150;2023-06-05T03:44:36;5.83;;;1.49;;
61473;SDS011;53694;49.784;30.150;2023-06-05T03:45:38;6.85;;;1.70;;
61473;SDS011;53694;49.784;30.150;2023-06-05T03:46:40;6.04;;;1.59;;
61473;SDS011;53694;49.784;30.150;2023-06-05T03:47:41;10.03;;;1.94;;
61473;SDS011;53694;49.784;30.150;2023-06-05T03:48:43;6.04;;;1.68;;
61473;SDS011;53694;49.784;30.150;2023-06-05T03:49:45;2.86;;;1.19;;
61473;SDS011;53694;49.784;30.150;2023-06-05T03:50:46;4.36;;;1.70;;
61473;SDS011;53694;49.784;30.150;2023-06-05T03:51:48;3.35;;;1.37;;
61473;SDS011;53694;49.784;30.150;2023-06-05T03:52:49;3.32;;;1.16;;
61473;SDS011;53694;49.784;30.150;2023-06-05T03:53:51;3.74;;;1.42;;
61473;SDS011;53694;49.784;30.150;2023-06-05T03:54:52;4.74;;;1.61;;
61473;SDS011;53694;49.784;30.150;2023-06-05T03:55:54;2.18;;;1.06;;
61473;SDS011;53694;49.784;30.150;2023-06-05T03:56:56;2.59;;;1.01;;
61473;SDS011;53694;49.784;30.150;2023-06-05T03:57:58;2.85;;;1.07;;
61473;SDS011;53694;49.784;30.150;2023-06-05T03:59:00;2.92;;;1.43;;
61473;SDS011;53694;49.784;30.150;2023-06-05T04:00:02;4.03;;;1.52;;
61473;SDS011;53694;49.784;30.150;2023-06-05T04:01:07;4.37;;;2.06;;
61473;SDS011;53694;49.784;30.150;2023-06-05T04:02:09;3.06;;;1.31;;
61473;SDS011;53694;49.784;30.150;2023-06-05T04:03:11;4.61;;;1.43;;
61473;SDS011;53694;49.784;30.150;2023-06-05T04:04:13;2.69;;;1.25;;
61473;SDS011;53694;49.784;30.150;2023-06-05T04:05:15;3.41;;;1.43;;
61473;SDS011;53694;49.784;30.150;2023-06-05T04:06:16;2.47;;;1.21;;
61473;SDS011;53694;49.784;30.150;2023-06-05T04:07:18;3.83;;;1.67;;
61473;SDS011;53694;49.784;30.150;2023-06-05T04:08:19;4.69;;;1.62;;
61473;SDS011;53694;49.784;30.150;2023-06-05T04:09:21;3.58;;;1.37;;
61473;SDS011;53694;49.784;30.150;2023-06-05T04:10:23;4.11;;;1.41;;
61473;SDS011;53694;49.784;30.150;2023-06-05T04:11:24;2.64;;;1.31;;
61473;SDS011;53694;49.784;30.150;2023-06-05T04:12:26;2.39;;;1.24;;
61473;SDS011;53694;49.784;30.150;2023-06-05T04:13:27;3.48;;;1.51;;
61473;SDS011;53694;49.784;30.150;2023-06-05T04:14:28;10.16;;;1.86;;
61473;SDS011;53694;49.784;30.150;2023-06-05T04:15:30;6.61;;;2.36;;
61473;SDS011;53694;49.784;30.150;2023-06-05T04:16:32;4.03;;;1.64;;
61473;SDS011;53694;49.784;30.150;2023-06-05T04:17:33;5.41;;;1.75;;
61473;SDS011;53694;49.784;30.150;2023-06-05T04:18:35;5.92;;;1.47;;
61473;SDS011;53694;49.784;30.150;2023-06-05T04:19:36;4.47;;;1.69;;
61473;SDS011;53694;49.784;30.150;2023-06-05T04:20:38;5.27;;;1.74;;
61473;SDS011;53694;49.784;30.150;2023-06-05T04:21:39;6.25;;;1.89;;
61473;SDS011;53694;49.784;30.150;2023-06-05T04:22:41;3.54;;;1.70;;
61473;SDS011;53694;49.784;30.150;2023-06-05T04:23:43;7.31;;;1.83;;
61473;SDS011;53694;49.784;30.150;2023-06-05T04:24:44;4.64;;;1.74;;
61473;SDS011;53694;49.784;30.150;2023-06-05T04:25:46;6.00;;;1.66;;
61473;SDS011;53694;49.784;30.150;2023-06-05T04:26:48;4.29;;;1.65;;
61473;SDS011;53694;49.784;30.150;2023-06-05T04:27:50;3.63;;;1.57;;
61473;SDS011;53694;49.784;30.150;2023-06-05T04:28:51;3.72;;;1.56;;
61473;SDS011;53694;49.784;30.150;2023-06-05T04:29:53;5.34;;;1.86;;
61473;SDS011;53694;49.784;30.150;2023-06-05T04:30:55;6.56;;;1.88;;
61473;SDS011;53694;49.784;30.150;2023-06-05T04:31:56;4.69;;;1.55;;
61473;SDS011;53694;49.784;30.150;2023-06-05T04:32:58;4.74;;;1.73;;
61473;SDS011;53694;49.784;30.150;2023-06-05T04:33:59;4.06;;;1.65;;
61473;SDS011;53694;49.784;30.150;2023-06-05T04:35:00;3.59;;;1.41;;
61473;SDS011;53694;49.784;30.150;2023-06-05T04:36:02;4.22;;;1.44;;
61473;SDS011;53694;49.784;30.150;2023-06-05T04:37:04;5.68;;;1.59;;
61473;SDS011;53694;49.784;30.150;2023-06-05T04:38:06;3.44;;;1.48;;
61473;SDS011;53694;49.784;30.150;2023-06-05T04:39:07;4.30;;;1.54;;
61473;SDS011;53694;49.784;30.150;2023-06-05T04:40:09;4.63;;;1.50;;
61473;SDS011;53694;49.784;30.150;2023-06-05T04:41:11;4.27;;;1.20;;
61473;SDS011;53694;49.784;30.150;2023-06-05T04:42:12;4.57;;;1.51;;
61473;SDS011;53694;49.784;30.150;2023-06-05T04:43:14;2.54;;;1.14;;
61473;SDS011;53694;49.784;30.150;2023-06-05T04:44:15;5.52;;;2.34;;
61473;SDS011;53694;49.784;30.150;2023-06-05T04:45:17;3.24;;;1.35;;
61473;SDS011;53694;49.784;30.150;2023-06-05T04:46:19;5.51;;;1.26;;
61473;SDS011;53694;49.784;30.150;2023-06-05T04:47:20;2.41;;;1.04;;
61473;SDS011;53694;49.784;30.150;2023-06-05T04:48:21;3.60;;;1.24;;
61473;SDS011;53694;49.784;30.150;2023-06-05T04:49:23;2.65;;;1.06;;
61473;SDS011;53694;49.784;30.150;2023-06-05T04:50:25;2.91;;;1.16;;
61473;SDS011;53694;49.784;30.150;2023-06-05T04:51:28;3.21;;;1.06;;
61473;SDS011;53694;49.784;30.150;2023-06-05T04:52:32;3.87;;;1.46;;
61473;SDS011;53694;49.784;30.150;2023-06-05T04:53:34;1.48;;;0.80;;
61473;SDS011;53694;49.784;30.150;2023-06-05T04:54:36;5.34;;;1.36;;
61473;SDS011;53694;49.784;30.150;2023-06-05T04:55:37;2.57;;;1.10;;
61473;SDS011;53694;49.784;30.150;2023-06-05T04:56:39;1.34;;;0.89;;
61473;SDS011;53694;49.784;30.150;2023-06-05T04:57:41;2.64;;;1.09;;
61473;SDS011;53694;49.784;30.150;2023-06-05T04:58:42;3.96;;;0.92;;
61473;SDS011;53694;49.784;30.150;2023-06-05T04:59:44;4.82;;;1.26;;
61473;SDS011;53694;49.784;30.150;2023-06-05T05:00:46;2.77;;;1.09;;
61473;SDS011;53694;49.784;30.150;2023-06-05T05:01:48;10.31;;;4.64;;
61473;SDS011;53694;49.784;30.150;2023-06-05T05:02:49;11.40;;;5.22;;
61473;SDS011;53694;49.784;30.150;2023-06-05T05:03:50;9.21;;;4.64;;
61473;SDS011;53694;49.784;30.150;2023-06-05T05:04:52;4.68;;;1.96;;
61473;SDS011;53694;49.784;30.150;2023-06-05T05:05:53;2.76;;;1.04;;
61473;SDS011;53694;49.784;30.150;2023-06-05T05:06:55;2.76;;;1.03;;
61473;SDS011;53694;49.784;30.150;2023-06-05T05:07:57;1.80;;;0.79;;
61473;SDS011;53694;49.784;30.150;2023-06-05T05:08:59;2.94;;;0.87;;
61473;SDS011;53694;49.784;30.150;2023-06-05T05:10:01;1.53;;;0.78;;
61473;SDS011;53694;49.784;30.150;2023-06-05T05:11:03;1.59;;;0.80;;
61473;SDS011;53694;49.784;30.150;2023-06-05T05:12:05;3.25;;;1.11;;
61473;SDS011;53694;49.784;30.150;2023-06-05T05:13:06;3.32;;;0.89;;
61473;SDS011;53694;49.784;30.150;2023-06-05T05:14:08;2.59;;;0.86;;
61473;SDS011;53694;49.784;30.150;2023-06-05T05:15:09;1.80;;;0.86;;
61473;SDS011;53694;49.784;30.150;2023-06-05T05:16:12;1.51;;;0.75;;
61473;SDS011;53694;49.784;30.150;2023-06-05T05:17:14;2.38;;;0.80;;
61473;SDS011;53694;49.784;30.150;2023-06-05T05:18:15;3.79;;;0.99;;
61473;SDS011;53694;49.784;30.150;2023-06-05T05:19:17;3.36;;;0.82;;
61473;SDS011;53694;49.784;30.150;2023-06-05T05:20:19;4.02;;;1.14;;
61473;SDS011;53694;49.784;30.150;2023-06-05T05:21:20;3.36;;;1.31;;
61473;SDS011;53694;49.784;30.150;2023-06-05T05:22:21;3.44;;;1.60;;
61473;SDS011;53694;49.784;30.150;2023-06-05T05:23:23;1.74;;;0.80;;
61473;SDS011;53694;49.784;30.150;2023-06-05T05:24:24;4.27;;;1.65;;
61473;SDS011;53694;49.784;30.150;2023-06-05T05:25:26;2.64;;;0.70;;
61473;SDS011;53694;49.784;30.150;2023-06-05T05:26:27;1.69;;;0.57;;
61473;SDS011;53694;49.784;30.150;2023-06-05T05:27:29;2.11;;;0.58;;
61473;SDS011;53694;49.784;30.150;2023-06-05T05:28:30;1.54;;;0.54;;
61473;SDS011;53694;49.784;30.150;2023-06-05T05:29:32;1.85;;;0.59;;
61473;SDS011;53694;49.784;30.150;2023-06-05T05:30:35;2.05;;;0.55;;
61473;SDS011;53694;49.784;30.150;2023-06-05T05:31:36;1.14;;;0.57;;
61473;SDS011;53694;49.784;30.150;2023-06-05T05:32:38;3.69;;;0.65;;
61473;SDS011;53694;49.784;30.150;2023-06-05T05:33:39;2.42;;;0.51;;
61473;SDS011;53694;49.784;30.150;2023-06-05T05:34:40;5.06;;;0.69;;
61473;SDS011;53694;49.784;30.150;2023-06-05T05:35:42;1.89;;;0.71;;
61473;SDS011;53694;49.784;30.150;2023-06-05T05:36:44;1.52;;;0.64;;
61473;SDS011;53694;49.784;30.150;2023-06-05T05:37:45;1.04;;;0.54;;
61473;SDS011;53694;49.784;30.150;2023-06-05T05:38:47;1.66;;;0.73;;
61473;SDS011;53694;49.784;30.150;2023-06-05T05:39:48;1.48;;;0.61;;
61473;SDS011;53694;49.784;30.150;2023-06-05T05:40:50;1.55;;;0.71;;
61473;SDS011;53694;49.784;30.150;2023-06-05T05:41:51;2.12;;;0.94;;
61473;SDS011;53694;49.784;30.150;2023-06-05T05:42:53;2.94;;;0.85;;
61473;SDS011;53694;49.784;30.150;2023-06-05T05:43:54;1.64;;;0.56;;
61473;SDS011;53694;49.784;30.150;2023-06-05T05:44:56;3.44;;;0.84;;
61473;SDS011;53694;49.784;30.150;2023-06-05T05:45:57;1.64;;;0.64;;
61473;SDS011;53694;49.784;30.150;2023-06-05T05:46:59;1.29;;;0.60;;
61473;SDS011;53694;49.784;30.150;2023-06-05T05:48:00;1.15;;;0.56;;
61473;SDS011;53694;49.784;30.150;2023-06-05T05:49:02;0.97;;;0.60;;
61473;SDS011;53694;49.784;30.150;2023-06-05T05:50:04;2.70;;;1.03;;
61473;SDS011;53694;49.784;30.150;2023-06-05T05:51:06;1.53;;;0.66;;
61473;SDS011;53694;49.784;30.150;2023-06-05T05:52:08;1.01;;;0.59;;
61473;SDS011;53694;49.784;30.150;2023-06-05T05:53:10;1.09;;;0.61;;
61473;SDS011;53694;49.784;30.150;2023-06-05T05:54:11;1.09;;;0.67;;
61473;SDS011;53694;49.784;30.150;2023-06-05T05:55:13;1.62;;;0.65;;
61473;SDS011;53694;49.784;30.150;2023-06-05T05:56:15;1.91;;;0.70;;
61473;SDS011;53694;49.784;30.150;2023-06-05T05:57:16;2.36;;;0.80;;
61473;SDS011;53694;49.784;30.150;2023-06-05T05:58:18;1.62;;;0.70;;
61473;SDS011;53694;49.784;30.150;2023-06-05T05:59:20;1.74;;;0.69;;
61473;SDS011;53694;49.784;30.150;2023-06-05T06:00:22;1.44;;;0.65;;
61473;SDS011;53694;49.784;30.150;2023-06-05T06:01:23;2.88;;;0.62;;
61473;SDS011;53694;49.784;30.150;2023-06-05T06:02:25;1.44;;;0.72;;
61473;SDS011;53694;49.784;30.150;2023-06-05T06:03:26;2.33;;;0.80;;
61473;SDS011;53694;49.784;30.150;2023-06-05T06:04:28;2.09;;;0.84;;
61473;SDS011;53694;49.784;30.150;2023-06-05T06:05:29;1.43;;;0.65;;
61473;SDS011;53694;49.784;30.150;2023-06-05T06:06:31;1.53;;;0.60;;
61473;SDS011;53694;49.784;30.150;2023-06-05T06:07:32;1.83;;;0.79;;
61473;SDS011;53694;49.784;30.150;2023-06-05T06:08:34;2.31;;;0.83;;